Timeline UpdatesTrip UpdatesNews PostsPvt PostsTravel TipsAdmin PostsConv PostsFollowed PostsChat RequestsBlog PostsPNR Posts

Disclaimer
Search
 
 
Thu Apr 24, 2014 21:47:49 ISTHomeTrainsΣChainsAtlasPNRForumGalleryNewsFAQTripsMembersLoginFeedback
No Recent News for this Train
Other Trains in the News **new
Latest...
.
Sat Sep 10, 2011 (03:37PM)
⇐ Return Journey: Train# 11464

11463/Somnath-Jabalpur Express

Jul 02 2013 (6:48PM)
Change Departure Station:
Change Arrival Station:
Post a Train Travel TipPost a Train Travel Tip **new
Post a Comment/Question/Picture/VideoPost a Comment/Question/Picture/Video
Pantry/Catering
✕ NO Pantry Car
✓ Catering Avbl
There is NO Pantry.; CATERING AVAILABLE. Food served at Jetalsar.
Loco/Rake Reversals
BRC/Vadodara Junction (7); ET/Itarsi Junction (7);
RSA - Rake Sharing
Has RSA with 11465/11466 Somnath-Jabalpur Express.
Rake/Coach Composition
LOCO(Diesel)-SLR/LD-GEN-GEN-S11-S10-S9-S8-S7-S6-S5-S4-S3-S2-S1-B3-B2-B1-A1-GEN-SLR;
Loco
WDM 2/3 of Ratlam Shed. & WAp4ET
News    PNR    Forum    Time-Table    Availability    Fare Chart    Map    Arr/Dep History    Trips    Gallery    ΣChains    X/O    Timeline    
Travel Time: 9h 18m    -2 halts    Distance: 440 km    Avg Speed: 47 km/hr
Type: Mail/Express
Zone: WCR/West Central
Departs @ 09:30 (Avg on time)
Platform# 1
S TWTF 
Somnath/SMNH 
Arrives @ 18:48
Platform# ???
S TWTF 
Maninagar/MAN 

-2 halts. 63 intermediate Stations between Somnath and Maninagar

Show ALL intermediate Stations  Show Old Time-Table

#CodeStation NameX/OArrivesAvgDepartsAvgHaltPFDay#KmSpeedElevZoneAddress
1SMNHSomnath (2)  -09:30+0110.03012mWRSomnath, Gujarat
2VRLVeraval (5)X  09:40+209:50+310m115.1608mWRVeraval, Gujarat
3MLHAMaliya Hatina (2)X  10:20+1410:22+132m--135.26454mWRMalia, Gujarat
4KSDKeshod (2)  10:37+1610:39+162m1151.34446mWRKeshod, Gujarat
5JNDJunagadh Junction (5)  11:27+1211:29+132m--186.85886mWRJunagadh, Gujarat
6JLRJetalsar Junction (5)  11:56+1412:04+158m--1112.739108mWRRajkot, Gujarat
7VRRVirpur (2)  12:34+712:36+82m--1132.262121mWRRajkot, Gujarat
8GDLGondal (3)  12:52+812:54+72m11148.843141mWRGondal, Gujarat
9BKNGBhakti Nagar (3)  13:43-113:45+42m11184.128142mWRRajkot, Gujarat
10RJTRajkot Junction (5)  13:58+514:03+75m11190.270128mWRRajkot, Gujarat
11WKRWankaner Junction (4)X  14:39+2214:41+232m--1231.95587mWRWankaner, Gujarat
12THANThan Junction (3)  15:10+2115:12+212m11258.567138mWRThangadh, Gujarat
13SUNRSurendranagar Junction (4)X  15:55+1815:57+192m--1306.25372mWRSurendra Nagar, Gujarat
14VGViramgam Junction (5)  17:11+517:13+72m--1371.75529mWRViramgam, Gujarat
15ADIAhmedabad Junction (12)X  18:25+418:45+320m41437.15651mWRAhmedabad, Gujarat
16MHDMahemdavad Kheda Road (4)  19:15+1619:17+162m21465.17537mWRMahemdavad, Gujarat
17NDNadiad Junction (4)  19:31+1619:33+162m11482.76237mWRNadiad, Gujarat
18ANNDAnand Junction (6)X  19:51+1619:53+162m11501.25144mWRAnand, Gujarat
19BRCVadodara Junction (7)X20:35+1921:00+2425m41536.9-36mWRVadodara, Gujarat
20DRLDerolXO  21:20+4321:42+2322m11587.23181mWRKalol, Gujarat
21GDAGodhra Junction (3)X  22:28+822:30+82m21610.880122mWRGodhra, Gujarat
22DHDDahod (3)  23:25+4423:27+442m--1683.990313mWRDahod, Gujarat
23MGNMeghnagar (3)  23:49+5323:51+542m--1717.046317mWRJhabua, Madhya Pradesh
24RTMRatlam Junction (7)X  01:35+2201:50+2115m52797.375495mWRRatlam, Madhya Pradesh
25KUHKhachrod (2)X  02:12+2902:14+292m--2825.046497mWRUjjain, Madhya Pradesh
26NADNagda Junction (4)O  02:32+2402:35+283m--2838.851468mWRNagda, Madhya Pradesh
27UJNUjjain Junction (8)  03:40+1403:50+2410m--2894.476492mWRUjjain, Madhya Pradesh
28TANTarana RoadO  04:15+3704:17+362m--2925.921498mWRMaksi, Madhya Pradesh
29MKCMaksi Junction (3)X  04:45+2204:47+222m--2935.481510mWRMakshi, Madhya Pradesh
30BCHBerchha (2)  05:01+2605:03+262m--2954.366493mWRShajapur, Madhya Pradesh
31KSHKali Sindh (2)  05:14+2705:16+262m--2966.572443mWRShajapur, Madhya Pradesh
32AKDAkodia (2)  05:31+2905:33+292m12984.456460mWRDist. Shajapur, Madhya Pradesh
33SJPShujalpur (3)X  05:47+2905:49+292m--2997.463453mWRShujalpur, Madhya Pradesh
34KPPKalapipal (2)  06:01+2906:03+282m121010.070487mWRState Highway 41, Madhya Pradesh
35PRBParbati (2)X  06:16+3006:18+302m--21025.264472mWRSehore, Madhya Pradesh
36SEHSehore (2)X  06:31+3306:33+322m221039.118500mWRMP 466001, Madhya Pradesh
37BIHBairagarh (2)08:08+008:10+22m221067.531522mWRBhopal, Madhya Pradesh
38BPLBhopal Junction (6)X  08:30+1208:35+235m421077.838497mWCRBhopal, Madhya Pradesh
39HBJBhopal HabibGanj (5)  08:45+2608:47+262m421084.061496mWCRHabibGanj, Madhya Pradesh
40HBDHoshangabad (4)X  09:53+2609:55+262m--21151.431308mWCRHoshangabad, Madhya Pradesh
41ETItarsi Junction (7)X10:30+1410:45+1215m221169.571329mWCRItarsi 461111, Madhya Pradesh
42SGPSohagpur (2)X11:27+4511:29+492m--21219.076340mWCRSohagpur, Madhya Pradesh
43PPIPipariya (3)X  11:43+5011:45+542m121236.790338mWCRPiparia, Madhya Pradesh
44GARGadarwara (2)  12:18+1:0112:20+1:032m121286.158352mWCRNarsinghpur, Madhya Pradesh
45KYKareli (2)XO  12:49+5712:51+572m121314.132361mWCRKareli, Madhya Pradesh
46NUNarsinghpur (2)  13:22+3913:24+392m121330.455365mWCRNarsimhapur, Madhya Pradesh
47SRIDShridham (3)X  13:58+2714:00+262m221361.473373mWCRShridham, Madhya Pradesh
48MMLMadan Mahal (3)  14:41+2114:43+212m321411.28428mWCRJabalpur, Madhya Pradesh
49JBPJabalpur Junction (7)  15:10+11-321414.7-416mWCRJabalpur, Madhya Pradesh
Scroll to Top
Scroll to Bottom